Time;durP1;ratioP1;P1;durP2;ratioP2;P2;SDS_P1;SDS_P2;PMS_P1;PMS_P2;Temp;Humidity;BMP_temperature;BMP_pressure;BME280_temperature;BME280_humidity;BME280_pressure;Samples;Min_cycle;Max_cycle;Signal;HPM_P1;HPM_P2
2021/12/31 00:01:32;;;;;;;;;;;15.20;99.90;;;;;;7346896;19;113685;-88
2021/12/31 00:03:59;;;;;;;;;;;15.20;99.90;;;;;;7344326;19;114054;-90
2021/12/31 00:06:26;;;;;;;;;;;15.20;99.90;;;;;;7346641;19;109358;-90
2021/12/31 00:08:56;;;;;;;;;;;15.20;99.90;;;;;;7343443;19;111051;-89
2021/12/31 00:11:23;;;;;;;;;;;15.20;99.90;;;;;;7343868;19;114964;-89
2021/12/31 00:13:51;;;;;;;;;;;15.20;99.90;;;;;;7347538;19;109675;-88
2021/12/31 00:16:18;;;;;;;;;;;15.20;99.90;;;;;;7344293;19;113799;-89
2021/12/31 00:18:46;;;;;;;;;;;15.10;99.90;;;;;;7352763;19;115477;-91
2021/12/31 00:21:14;;;;;;;;;;;15.20;99.90;;;;;;7341789;19;114936;-89
2021/12/31 00:23:43;;;;;;;;;;;15.20;99.90;;;;;;7345202;19;113437;-89
2021/12/31 00:26:10;;;;;;;;;;;15.20;99.90;;;;;;7343667;19;109325;-88
2021/12/31 00:28:38;;;;;;;;;;;15.20;99.90;;;;;;7345529;19;112083;-89
2021/12/31 00:31:05;;;;;;;;;;;15.20;99.90;;;;;;7342467;19;113639;-89
2021/12/31 00:33:32;;;;;;;;;;;15.10;99.90;;;;;;7345216;19;112846;-88
2021/12/31 00:35:59;;;;;;;;;;;15.10;99.90;;;;;;7345585;19;112557;-90
2021/12/31 00:38:27;;;;;;;;;;;15.20;99.90;;;;;;7343716;19;114317;-88
2021/12/31 00:40:56;;;;;;;;;;;15.10;99.90;;;;;;7350254;19;110316;-89
2021/12/31 00:43:26;;;;;;;;;;;15.20;99.90;;;;;;7343445;19;113104;-88
2021/12/31 00:45:58;;;;;;;;;;;15.10;99.90;;;;;;7347216;19;109972;-91
2021/12/31 00:48:25;;;;;;;;;;;15.10;99.90;;;;;;7342463;19;111234;-88
2021/12/31 00:50:56;;;;;;;;;;;15.10;99.90;;;;;;7346025;19;113772;-90
2021/12/31 00:53:23;;;;;;;;;;;15.10;99.90;;;;;;7343733;19;109970;-89
2021/12/31 00:55:51;;;;;;;;;;;15.10;99.90;;;;;;7343939;19;111414;-90
2021/12/31 00:58:18;;;;;;;;;;;15.10;99.90;;;;;;7343797;19;114452;-88
2021/12/31 01:00:46;;;;;;;;;;;15.10;99.90;;;;;;7342503;19;109842;-88
2021/12/31 01:03:15;;;;;;;;;;;15.10;99.90;;;;;;7346408;19;112500;-90
2021/12/31 01:05:47;;;;;;;;;;;15.10;99.90;;;;;;7343651;19;109528;-89
2021/12/31 01:08:16;;;;;;;;;;;15.10;99.90;;;;;;7349794;19;109333;-92
2021/12/31 01:10:52;;;;;;;;;;;15.10;99.90;;;;;;7347814;19;113305;-88
2021/12/31 01:13:31;;;;;;;;;;;15.10;99.90;;;;;;7352730;19;109256;-90
2021/12/31 01:16:01;;;;;;;;;;;15.10;99.90;;;;;;7348830;19;112668;-88
2021/12/31 01:21:30;;;;;;;;;;;15.10;99.90;;;;;;7349486;19;109486;-90
2021/12/31 01:23:58;;;;;;;;;;;15.00;99.90;;;;;;7350352;19;111559;-89
2021/12/31 01:26:26;;;;;;;;;;;15.00;99.90;;;;;;7356246;19;115075;-90
2021/12/31 01:28:53;;;;;;;;;;;15.00;99.90;;;;;;7348240;19;112062;-86
2021/12/31 01:31:21;;;;;;;;;;;15.00;99.90;;;;;;7352448;19;113746;-88
2021/12/31 01:33:48;;;;;;;;;;;15.00;99.90;;;;;;7348848;19;109347;-90
2021/12/31 01:36:16;;;;;;;;;;;15.00;99.90;;;;;;7352158;19;110281;-86
2021/12/31 01:38:45;;;;;;;;;;;15.00;99.90;;;;;;7347785;19;114042;-88
2021/12/31 01:41:12;;;;;;;;;;;15.00;99.90;;;;;;7351985;19;109445;-89
2021/12/31 01:43:39;;;;;;;;;;;15.00;99.90;;;;;;7349223;19;112380;-88
2021/12/31 01:46:11;;;;;;;;;;;15.10;99.90;;;;;;7356348;19;115148;-90
2021/12/31 01:49:01;;;;;;;;;;;15.00;99.90;;;;;;7349054;19;112793;-90
2021/12/31 01:51:29;;;;;;;;;;;15.00;99.90;;;;;;7348824;19;113733;-87
2021/12/31 01:53:56;;;;;;;;;;;15.00;99.90;;;;;;7350881;19;109754;-91
2021/12/31 01:56:27;;;;;;;;;;;15.00;99.90;;;;;;7347564;19;112542;-88
2021/12/31 01:58:55;;;;;;;;;;;15.00;99.90;;;;;;7351006;19;113446;-88
2021/12/31 02:01:22;;;;;;;;;;;15.00;99.90;;;;;;7347782;19;109850;-89
2021/12/31 02:03:51;;;;;;;;;;;15.00;99.90;;;;;;7351465;19;113965;-89
2021/12/31 02:06:19;;;;;;;;;;;15.00;99.90;;;;;;7348761;19;114769;-90
2021/12/31 02:08:46;;;;;;;;;;;15.00;99.90;;;;;;7353688;19;109480;-90
2021/12/31 02:11:17;;;;;;;;;;;15.00;99.90;;;;;;7348050;19;116039;-89
2021/12/31 02:13:44;;;;;;;;;;;15.00;99.90;;;;;;7350265;19;109397;-87
2021/12/31 02:16:11;;;;;;;;;;;15.00;99.90;;;;;;7350077;19;113554;-89
2021/12/31 02:18:38;;;;;;;;;;;15.00;99.90;;;;;;7349988;19;112106;-89
2021/12/31 02:21:08;;;;;;;;;;;15.00;99.90;;;;;;7351676;19;109431;-88
2021/12/31 02:23:43;;;;;;;;;;;15.00;99.90;;;;;;7346515;19;113780;-89
2021/12/31 02:26:10;;;;;;;;;;;15.00;99.90;;;;;;7350684;19;114258;-87
2021/12/31 02:28:38;;;;;;;;;;;15.00;99.90;;;;;;7350147;19;109459;-91
2021/12/31 02:31:05;;;;;;;;;;;15.00;99.90;;;;;;7354441;19;114045;-89
2021/12/31 02:33:33;;;;;;;;;;;15.00;99.90;;;;;;7347357;19;110102;-87
2021/12/31 02:36:01;;;;;;;;;;;15.00;99.90;;;;;;7350248;19;113734;-88
2021/12/31 02:38:28;;;;;;;;;;;15.00;99.90;;;;;;7349555;19;114470;-89
2021/12/31 02:40:55;;;;;;;;;;;15.00;99.90;;;;;;7347509;19;109310;-88
2021/12/31 02:43:22;;;;;;;;;;;15.00;99.90;;;;;;7349274;19;113246;-87
2021/12/31 02:45:49;;;;;;;;;;;15.00;99.90;;;;;;7348108;19;111737;-90
2021/12/31 02:48:24;;;;;;;;;;;15.00;99.90;;;;;;7349542;19;109366;-88
2021/12/31 02:50:53;;;;;;;;;;;15.00;99.90;;;;;;7345774;19;113507;-91
2021/12/31 02:53:23;;;;;;;;;;;15.00;99.90;;;;;;7354535;19;114852;-87
2021/12/31 02:55:57;;;;;;;;;;;14.90;99.90;;;;;;7346649;19;113465;-90
2021/12/31 02:58:24;;;;;;;;;;;14.90;99.90;;;;;;7347470;19;114092;-89
2021/12/31 03:00:52;;;;;;;;;;;14.90;99.90;;;;;;7346771;19;109729;-86
2021/12/31 03:03:20;;;;;;;;;;;14.90;99.90;;;;;;7348227;19;112967;-89
2021/12/31 03:05:48;;;;;;;;;;;14.90;99.90;;;;;;7344521;19;115114;-89
2021/12/31 03:08:16;;;;;;;;;;;14.80;99.90;;;;;;7346839;19;109346;-90
2021/12/31 03:10:44;;;;;;;;;;;14.80;99.90;;;;;;7349527;19;113564;-88
2021/12/31 03:13:12;;;;;;;;;;;14.80;99.90;;;;;;7345788;19;115418;-89
2021/12/31 03:15:39;;;;;;;;;;;14.80;99.90;;;;;;7354542;19;109381;-89
2021/12/31 03:18:09;;;;;;;;;;;14.80;99.90;;;;;;7346324;19;114728;-87
2021/12/31 03:20:38;;;;;;;;;;;14.80;99.90;;;;;;7349560;19;109540;-90
2021/12/31 03:23:06;;;;;;;;;;;14.70;99.90;;;;;;7346678;19;113681;-90
2021/12/31 03:25:33;;;;;;;;;;;14.70;99.90;;;;;;7347641;19;113888;-86
2021/12/31 03:28:00;;;;;;;;;;;14.70;99.90;;;;;;7344699;19;109757;-90
2021/12/31 03:30:27;;;;;;;;;;;14.70;99.90;;;;;;7346181;19;110631;-91
2021/12/31 03:32:54;;;;;;;;;;;14.70;99.90;;;;;;7345233;19;110769;-88
2021/12/31 03:35:21;;;;;;;;;;;14.60;99.90;;;;;;7347236;19;109396;-87
2021/12/31 03:37:49;;;;;;;;;;;14.60;99.90;;;;;;7350421;19;113528;-89
2021/12/31 03:40:15;;;;;;;;;;;14.60;99.90;;;;;;7346178;19;109416;-87
2021/12/31 03:42:43;;;;;;;;;;;14.60;99.90;;;;;;7347834;19;111840;-88
2021/12/31 03:45:10;;;;;;;;;;;14.60;99.90;;;;;;7345183;19;114767;-88
2021/12/31 03:47:37;;;;;;;;;;;14.60;99.90;;;;;;7348285;19;110115;-91
2021/12/31 03:50:04;;;;;;;;;;;14.60;99.90;;;;;;7347032;19;113736;-89
2021/12/31 03:52:35;;;;;;;;;;;14.60;99.90;;;;;;7347031;19;113651;-87
2021/12/31 03:55:02;;;;;;;;;;;14.60;99.90;;;;;;7344426;19;109496;-87
2021/12/31 03:57:29;;;;;;;;;;;14.60;99.90;;;;;;7352543;19;112179;-89
2021/12/31 03:59:56;;;;;;;;;;;14.60;99.90;;;;;;7348334;19;109393;-90
2021/12/31 04:02:23;;;;;;;;;;;14.60;99.90;;;;;;7345872;19;112748;-90
2021/12/31 04:04:50;;;;;;;;;;;14.60;99.90;;;;;;7347751;19;111768;-87
2021/12/31 04:07:17;;;;;;;;;;;14.60;99.90;;;;;;7345477;19;109705;-89
2021/12/31 04:09:44;;;;;;;;;;;14.50;99.90;;;;;;7346848;19;110240;-87
2021/12/31 04:12:11;;;;;;;;;;;14.50;99.90;;;;;;7344268;19;112500;-90
2021/12/31 04:14:38;;;;;;;;;;;14.40;99.90;;;;;;7346397;19;109432;-86
2021/12/31 04:17:05;;;;;;;;;;;14.40;99.90;;;;;;7344786;19;113766;-92
2021/12/31 04:19:32;;;;;;;;;;;14.40;99.90;;;;;;7350756;19;112120;-86
2021/12/31 04:21:59;;;;;;;;;;;14.40;99.90;;;;;;7346670;19;113157;-86
2021/12/31 04:27:12;;;;;;;;;;;14.40;99.90;;;;;;7347852;19;109511;-89
2021/12/31 04:29:39;;;;;;;;;;;14.30;99.90;;;;;;7344540;19;114257;-89
2021/12/31 04:32:06;;;;;;;;;;;14.30;99.90;;;;;;7345913;19;110297;-89
2021/12/31 04:34:34;;;;;;;;;;;14.20;99.90;;;;;;7343362;19;110022;-89
2021/12/31 04:37:01;;;;;;;;;;;14.30;99.90;;;;;;7346804;19;113406;-90
2021/12/31 04:39:28;;;;;;;;;;;14.20;99.90;;;;;;7343803;19;113727;-88
2021/12/31 04:41:56;;;;;;;;;;;14.20;99.90;;;;;;7350603;19;109414;-89
2021/12/31 04:44:24;;;;;;;;;;;14.10;99.90;;;;;;7343500;19;114939;-90
2021/12/31 04:46:52;;;;;;;;;;;14.10;99.90;;;;;;7345798;19;109372;-89
2021/12/31 04:49:20;;;;;;;;;;;14.00;99.90;;;;;;7344405;19;113803;-89
2021/12/31 04:51:47;;;;;;;;;;;14.00;99.90;;;;;;7341714;19;116201;-89
2021/12/31 04:54:16;;;;;;;;;;;14.00;99.90;;;;;;7346731;19;110414;-89
2021/12/31 04:56:43;;;;;;;;;;;13.90;99.90;;;;;;7342596;19;113071;-89
2021/12/31 04:59:11;;;;;;;;;;;13.90;99.90;;;;;;7346376;19;113874;-87
2021/12/31 05:01:38;;;;;;;;;;;13.80;99.90;;;;;;7342886;19;109445;-90
2021/12/31 05:04:05;;;;;;;;;;;13.80;99.90;;;;;;7351462;19;112873;-88
2021/12/31 05:06:33;;;;;;;;;;;13.80;99.90;;;;;;7342246;19;110171;-88
2021/12/31 05:09:00;;;;;;;;;;;13.70;99.90;;;;;;7344319;19;114264;-89
2021/12/31 05:11:28;;;;;;;;;;;13.70;99.90;;;;;;7342940;19;114715;-89
2021/12/31 05:13:55;;;;;;;;;;;13.70;99.90;;;;;;7344634;19;109374;-90
2021/12/31 05:16:22;;;;;;;;;;;13.60;99.90;;;;;;7343665;19;113464;-89
2021/12/31 05:18:49;;;;;;;;;;;13.60;99.90;;;;;;7342845;19;114977;-87
2021/12/31 05:21:16;;;;;;;;;;;13.50;99.90;;;;;;7342410;19;109383;-89
2021/12/31 05:23:44;;;;;;;;;;;13.50;99.90;;;;;;7342233;19;112886;-88
2021/12/31 05:26:11;;;;;;;;;;;13.50;99.90;;;;;;7349518;19;114942;-88
2021/12/31 05:28:38;;;;;;;;;;;13.50;99.90;;;;;;7341612;19;114321;-88
2021/12/31 05:31:06;;;;;;;;;;;13.50;99.90;;;;;;7344532;19;114713;-88
2021/12/31 05:33:33;;;;;;;;;;;13.40;99.90;;;;;;7341786;19;109379;-90
2021/12/31 05:36:00;;;;;;;;;;;13.30;99.90;;;;;;7345088;19;111751;-89
2021/12/31 05:38:27;;;;;;;;;;;13.40;99.90;;;;;;7339929;19;114268;-87
2021/12/31 05:40:54;;;;;;;;;;;13.30;99.90;;;;;;7344788;19;111293;-90
2021/12/31 05:43:21;;;;;;;;;;;13.30;99.90;;;;;;7343037;19;114517;-88
2021/12/31 05:45:48;;;;;;;;;;;13.30;99.90;;;;;;7343583;19;114606;-87
2021/12/31 05:48:23;;;;;;;;;;;13.20;99.90;;;;;;7346846;19;110164;-89
2021/12/31 05:50:50;;;;;;;;;;;13.20;99.90;;;;;;7342667;19;112233;-92
2021/12/31 05:53:17;;;;;;;;;;;13.20;99.90;;;;;;7349633;19;110592;-89
2021/12/31 05:55:44;;;;;;;;;;;13.20;99.90;;;;;;7349395;19;110892;-89
2021/12/31 05:58:11;;;;;;;;;;;13.20;99.90;;;;;;7350037;19;115002;-88
2021/12/31 06:00:38;;;;;;;;;;;13.20;99.90;;;;;;7347367;19;109778;-89
2021/12/31 06:03:05;;;;;;;;;;;13.10;99.90;;;;;;7350563;19;111315;-88
2021/12/31 06:05:32;;;;;;;;;;;13.10;99.90;;;;;;7346997;19;114683;-87
2021/12/31 06:07:59;;;;;;;;;;;13.10;99.90;;;;;;7356361;19;109652;-89
2021/12/31 06:10:26;;;;;;;;;;;13.10;99.90;;;;;;7347605;19;115035;-91
2021/12/31 06:12:59;;;;;;;;;;;13.10;99.90;;;;;;7351528;19;109474;-90
2021/12/31 06:15:28;;;;;;;;;;;13.00;99.90;;;;;;7348684;19;111621;-88
2021/12/31 06:17:55;;;;;;;;;;;13.00;99.90;;;;;;7346782;19;112783;-90
2021/12/31 06:20:22;;;;;;;;;;;13.00;99.90;;;;;;7347931;19;109431;-89
2021/12/31 06:22:49;;;;;;;;;;;13.00;99.90;;;;;;7350349;19;114105;-88
2021/12/31 06:25:15;;;;;;;;;;;13.00;99.90;;;;;;7349512;19;112225;-89
2021/12/31 06:27:42;;;;;;;;;;;13.00;99.90;;;;;;7348437;19;112238;-87
2021/12/31 06:30:10;;;;;;;;;;;13.00;99.90;;;;;;7355514;19;112051;-88
2021/12/31 06:32:37;;;;;;;;;;;13.00;99.90;;;;;;7347098;19;109457;-87
2021/12/31 06:35:04;;;;;;;;;;;13.00;99.90;;;;;;7350911;19;109481;-91
2021/12/31 06:37:31;;;;;;;;;;;13.00;99.90;;;;;;7346895;19;111103;-87
2021/12/31 06:40:04;;;;;;;;;;;13.00;99.90;;;;;;7350004;19;109561;-88
2021/12/31 06:42:31;;;;;;;;;;;13.00;99.90;;;;;;7347653;19;111153;-88
2021/12/31 06:44:58;;;;;;;;;;;12.90;99.90;;;;;;7348647;19;114506;-88
2021/12/31 06:47:25;;;;;;;;;;;12.90;99.90;;;;;;7347631;19;109499;-89
2021/12/31 06:49:52;;;;;;;;;;;12.90;99.90;;;;;;7348022;19;110934;-91
2021/12/31 06:52:19;;;;;;;;;;;12.90;99.90;;;;;;7351803;19;114736;-91
2021/12/31 06:54:47;;;;;;;;;;;12.90;99.90;;;;;;7347890;19;110859;-91
2021/12/31 06:57:14;;;;;;;;;;;12.80;99.90;;;;;;7346922;19;114807;-89
2021/12/31 06:59:40;;;;;;;;;;;12.90;99.90;;;;;;7344514;19;113797;-88
2021/12/31 07:02:08;;;;;;;;;;;12.80;99.90;;;;;;7345919;19;113997;-87
2021/12/31 07:04:35;;;;;;;;;;;12.80;99.90;;;;;;7342315;19;111747;-88
2021/12/31 07:07:02;;;;;;;;;;;12.70;99.90;;;;;;7346287;19;110221;-87
2021/12/31 07:09:29;;;;;;;;;;;12.70;99.90;;;;;;7345287;19;115682;-88
2021/12/31 07:11:56;;;;;;;;;;;12.70;99.90;;;;;;7347330;19;112223;-87
2021/12/31 07:14:23;;;;;;;;;;;12.70;99.90;;;;;;7348968;19;109640;-88
2021/12/31 07:16:50;;;;;;;;;;;12.70;99.90;;;;;;7348643;19;112241;-87
2021/12/31 07:19:17;;;;;;;;;;;12.70;99.90;;;;;;7346256;19;109844;-87
2021/12/31 07:21:44;;;;;;;;;;;12.70;99.90;;;;;;7346930;19;111608;-87
2021/12/31 07:24:11;;;;;;;;;;;12.70;99.90;;;;;;7346904;19;113974;-87
2021/12/31 07:26:38;;;;;;;;;;;12.60;99.90;;;;;;7344182;19;110023;-88
2021/12/31 07:29:05;;;;;;;;;;;12.60;99.90;;;;;;7339501;19;114190;-86
2021/12/31 07:31:32;;;;;;;;;;;12.60;99.90;;;;;;7341233;19;113803;-87
2021/12/31 07:33:59;;;;;;;;;;;12.60;99.90;;;;;;7346186;19;109352;-87
2021/12/31 07:36:27;;;;;;;;;;;12.60;99.90;;;;;;7349663;19;110753;-87
2021/12/31 07:39:04;;;;;;;;;;;12.60;99.90;;;;;;7345301;19;110353;-89
2021/12/31 07:41:32;;;;;;;;;;;12.50;99.90;;;;;;7345386;19;111284;-87
2021/12/31 07:43:59;;;;;;;;;;;12.50;99.90;;;;;;7346994;19;114544;-87
2021/12/31 07:46:26;;;;;;;;;;;12.50;99.90;;;;;;7344676;19;109436;-88
2021/12/31 07:48:56;;;;;;;;;;;12.50;99.90;;;;;;7346509;19;111026;-87
2021/12/31 07:51:24;;;;;;;;;;;12.50;99.90;;;;;;7342611;19;113892;-88
2021/12/31 07:53:54;;;;;;;;;;;12.50;99.90;;;;;;7341582;19;111582;-89
2021/12/31 07:56:21;;;;;;;;;;;12.50;99.90;;;;;;7346648;19;114276;-89
2021/12/31 07:58:48;;;;;;;;;;;12.50;99.90;;;;;;7344919;19;109729;-88
2021/12/31 08:01:16;;;;;;;;;;;12.50;99.90;;;;;;7345368;19;110975;-87
2021/12/31 08:03:44;;;;;;;;;;;12.50;99.90;;;;;;7344695;19;111843;-87
2021/12/31 08:06:11;;;;;;;;;;;12.40;99.90;;;;;;7346048;19;109570;-87
2021/12/31 08:08:38;;;;;;;;;;;12.40;99.90;;;;;;7343480;19;110207;-89
2021/12/31 08:11:05;;;;;;;;;;;12.40;99.90;;;;;;7343424;19;112247;-87
2021/12/31 08:13:32;;;;;;;;;;;12.40;99.90;;;;;;7342666;19;109645;-88
2021/12/31 08:15:59;;;;;;;;;;;12.40;99.90;;;;;;7344606;19;111151;-89
2021/12/31 08:18:26;;;;;;;;;;;12.40;99.90;;;;;;7349380;19;111927;-89
2021/12/31 08:20:53;;;;;;;;;;;12.40;99.90;;;;;;7345358;19;112292;-87
2021/12/31 08:23:19;;;;;;;;;;;12.40;99.90;;;;;;7341869;19;112094;-89
2021/12/31 08:25:46;;;;;;;;;;;12.40;99.90;;;;;;7345336;19;109689;-88
2021/12/31 08:28:13;;;;;;;;;;;12.40;99.90;;;;;;7341396;19;111284;-88
2021/12/31 08:30:40;;;;;;;;;;;12.40;99.90;;;;;;7340737;19;113861;-86
2021/12/31 08:33:07;;;;;;;;;;;12.40;99.90;;;;;;7343844;19;110570;-87
2021/12/31 08:35:35;;;;;;;;;;;12.40;99.90;;;;;;7342754;19;114555;-87
2021/12/31 08:38:01;;;;;;;;;;;12.40;99.90;;;;;;7343158;19;112144;-87
2021/12/31 08:40:28;;;;;;;;;;;12.40;99.90;;;;;;7344679;19;110546;-87
2021/12/31 08:42:58;;;;;;;;;;;12.50;99.90;;;;;;7344663;19;114852;-89
2021/12/31 08:45:30;;;;;;;;;;;12.50;99.90;;;;;;7345282;19;109356;-86
2021/12/31 08:47:58;;;;;;;;;;;12.50;99.90;;;;;;7347873;19;113632;-86
2021/12/31 08:50:25;;;;;;;;;;;12.50;99.90;;;;;;7339507;19;112003;-88
2021/12/31 08:52:53;;;;;;;;;;;12.50;99.90;;;;;;7344996;19;112327;-86
2021/12/31 08:55:20;;;;;;;;;;;12.50;99.90;;;;;;7343052;19;111296;-87
2021/12/31 08:57:47;;;;;;;;;;;12.50;99.90;;;;;;7340633;19;112642;-86
2021/12/31 09:00:14;;;;;;;;;;;12.60;99.90;;;;;;7343388;19;109875;-88
2021/12/31 09:02:42;;;;;;;;;;;12.60;99.90;;;;;;7349250;19;112605;-86
2021/12/31 09:05:09;;;;;;;;;;;12.60;99.90;;;;;;7338915;19;109778;-86
2021/12/31 09:07:36;;;;;;;;;;;12.70;99.90;;;;;;7340215;19;112428;-86
2021/12/31 09:10:03;;;;;;;;;;;12.70;99.90;;;;;;7343033;19;115731;-87
2021/12/31 09:12:30;;;;;;;;;;;12.70;99.90;;;;;;7343859;19;110166;-86
2021/12/31 09:14:57;;;;;;;;;;;12.70;99.90;;;;;;7344101;19;111444;-87
2021/12/31 09:17:24;;;;;;;;;;;12.70;99.90;;;;;;7339828;19;113796;-87
2021/12/31 09:19:51;;;;;;;;;;;12.70;99.90;;;;;;7343372;19;109304;-87
2021/12/31 09:22:18;;;;;;;;;;;12.70;99.90;;;;;;7346012;19;109699;-87
2021/12/31 09:24:45;;;;;;;;;;;12.80;99.90;;;;;;7346521;19;111956;-88
2021/12/31 09:27:12;;;;;;;;;;;12.80;99.90;;;;;;7348809;19;111881;-87
2021/12/31 09:29:39;;;;;;;;;;;12.80;99.90;;;;;;7349498;19;112628;-87
2021/12/31 09:32:06;;;;;;;;;;;12.80;99.90;;;;;;7353172;19;109356;-86
2021/12/31 09:34:34;;;;;;;;;;;12.80;99.90;;;;;;7347803;19;110086;-87
2021/12/31 09:37:01;;;;;;;;;;;12.90;99.90;;;;;;7351159;19;113422;-86
2021/12/31 09:39:27;;;;;;;;;;;12.90;99.90;;;;;;7347379;19;110111;-87
2021/12/31 09:41:54;;;;;;;;;;;12.90;99.90;;;;;;7350781;19;111026;-87
2021/12/31 09:44:21;;;;;;;;;;;13.00;99.90;;;;;;7346828;19;112115;-86
2021/12/31 09:46:49;;;;;;;;;;;13.00;99.90;;;;;;7352060;19;110535;-86
2021/12/31 09:49:16;;;;;;;;;;;13.10;99.90;;;;;;7347950;19;113025;-87
2021/12/31 09:51:43;;;;;;;;;;;13.10;99.90;;;;;;7348940;19;109451;-86
2021/12/31 09:54:10;;;;;;;;;;;13.10;99.90;;;;;;7349463;19;113774;-88
2021/12/31 09:56:40;;;;;;;;;;;13.10;99.90;;;;;;7347331;19;114811;-87
2021/12/31 09:59:10;;;;;;;;;;;13.20;99.90;;;;;;7350436;19;109347;-85
2021/12/31 10:01:47;;;;;;;;;;;13.20;99.90;;;;;;7343038;19;110927;-87
2021/12/31 10:04:14;;;;;;;;;;;13.20;99.90;;;;;;7349042;19;110976;-87
2021/12/31 10:07:05;;;;;;;;;;;13.20;99.90;;;;;;7353002;19;111419;-87
2021/12/31 10:09:33;;;;;;;;;;;13.30;99.90;;;;;;7348134;19;112313;-87
2021/12/31 10:12:06;;;;;;;;;;;13.30;99.90;;;;;;7345737;19;110803;-87
2021/12/31 10:14:42;;;;;;;;;;;13.30;99.90;;;;;;7343104;19;111968;-87
2021/12/31 10:17:09;;;;;;;;;;;13.30;99.90;;;;;;7350300;19;112232;-88
2021/12/31 10:19:54;;;;;;;;;;;13.30;99.90;;;;;;7346533;19;109864;-87
2021/12/31 10:22:21;;;;;;;;;;;13.30;99.90;;;;;;7351075;19;116026;-87
2021/12/31 10:24:48;;;;;;;;;;;13.30;99.90;;;;;;7349565;19;113182;-86
2021/12/31 10:27:20;;;;;;;;;;;13.30;99.90;;;;;;7350703;19;109260;-86
2021/12/31 10:29:54;;;;;;;;;;;13.40;99.90;;;;;;7354238;19;114355;-86
2021/12/31 10:32:28;;;;;;;;;;;13.50;99.90;;;;;;7349925;19;109492;-87
2021/12/31 10:35:07;;;;;;;;;;;13.50;99.90;;;;;;7351216;19;111077;-87
2021/12/31 10:37:40;;;;;;;;;;;13.50;99.90;;;;;;7347295;19;111616;-88
2021/12/31 10:40:07;;;;;;;;;;;13.60;99.90;;;;;;7352058;19;109196;-87
2021/12/31 10:42:37;;;;;;;;;;;13.60;99.90;;;;;;7348761;19;109953;-87
2021/12/31 10:45:05;;;;;;;;;;;13.70;99.90;;;;;;7348924;19;112000;-86
2021/12/31 10:47:34;;;;;;;;;;;13.80;99.90;;;;;;7348777;19;109291;-86
2021/12/31 10:50:01;;;;;;;;;;;13.90;99.90;;;;;;7348844;19;110151;-88
2021/12/31 10:52:34;;;;;;;;;;;13.90;99.90;;;;;;7353211;19;112508;-87
2021/12/31 10:55:23;;;;;;;;;;;14.00;99.90;;;;;;7347326;19;112759;-87
2021/12/31 10:57:52;;;;;;;;;;;14.00;99.90;;;;;;7348764;19;112192;-87
2021/12/31 11:00:20;;;;;;;;;;;14.10;99.90;;;;;;7346672;19;109532;-88
2021/12/31 11:02:47;;;;;;;;;;;14.10;99.90;;;;;;7350719;19;110967;-88
2021/12/31 11:05:16;;;;;;;;;;;14.00;99.90;;;;;;7344653;19;111861;-87
2021/12/31 11:07:43;;;;;;;;;;;14.10;99.90;;;;;;7347853;19;109459;-88
2021/12/31 11:10:35;;;;;;;;;;;14.00;99.90;;;;;;7346528;19;110662;-88
2021/12/31 11:13:11;;;;;;;;;;;14.10;99.90;;;;;;7344310;19;112865;-87
2021/12/31 11:15:40;;;;;;;;;;;14.10;99.90;;;;;;7350745;19;109513;-85
2021/12/31 11:18:08;;;;;;;;;;;14.10;99.90;;;;;;7341972;19;112001;-87
2021/12/31 11:20:35;;;;;;;;;;;14.10;99.90;;;;;;7346420;19;109461;-87
2021/12/31 11:23:02;;;;;;;;;;;14.10;99.90;;;;;;7341986;19;110869;-86
2021/12/31 11:25:50;;;;;;;;;;;14.10;99.90;;;;;;7346121;19;112046;-86
2021/12/31 11:28:30;;;;;;;;;;;14.10;99.90;;;;;;7343794;19;109687;-86
2021/12/31 11:31:16;;;;;;;;;;;14.10;99.90;;;;;;7347121;19;110722;-85
2021/12/31 11:33:47;;;;;;;;;;;14.20;99.90;;;;;;7344188;19;110770;-86
2021/12/31 11:36:13;;;;;;;;;;;14.20;99.90;;;;;;7344368;19;109465;-87
2021/12/31 11:38:42;;;;;;;;;;;14.30;99.90;;;;;;7353318;19;110805;-87
2021/12/31 11:41:20;;;;;;;;;;;14.20;99.90;;;;;;7344301;19;110450;-86
2021/12/31 11:44:04;;;;;;;;;;;14.30;99.90;;;;;;7346408;19;111241;-87
2021/12/31 11:46:32;;;;;;;;;;;14.30;99.90;;;;;;7341922;19;112362;-87
2021/12/31 11:48:59;;;;;;;;;;;14.30;99.90;;;;;;7346395;19;109408;-86
2021/12/31 11:51:38;;;;;;;;;;;14.30;99.90;;;;;;7343171;19;110706;-86
2021/12/31 11:54:06;;;;;;;;;;;14.40;99.90;;;;;;7344655;19;111202;-87
2021/12/31 11:56:36;;;;;;;;;;;14.50;99.90;;;;;;7342925;19;110476;-87
2021/12/31 11:59:12;;;;;;;;;;;14.70;99.90;;;;;;7345922;19;111056;-85
2021/12/31 12:01:40;;;;;;;;;;;14.80;99.90;;;;;;7350592;19;112290;-86
2021/12/31 12:04:20;;;;;;;;;;;14.80;99.90;;;;;;7344925;19;113609;-86
2021/12/31 12:06:54;;;;;;;;;;;14.90;99.90;;;;;;7344128;19;112331;-86
2021/12/31 12:09:44;;;;;;;;;;;14.90;99.90;;;;;;7342457;19;109435;-86
2021/12/31 12:12:13;;;;;;;;;;;14.90;99.90;;;;;;7342575;19;110295;-87
2021/12/31 12:14:41;;;;;;;;;;;14.80;99.90;;;;;;7343071;19;113576;-87
2021/12/31 12:17:12;;;;;;;;;;;14.90;99.90;;;;;;7346703;19;109308;-88
2021/12/31 12:19:51;;;;;;;;;;;14.90;99.90;;;;;;7344879;19;114561;-85
2021/12/31 12:22:37;;;;;;;;;;;15.00;99.90;;;;;;7348780;19;112046;-86
2021/12/31 12:25:10;;;;;;;;;;;15.00;99.90;;;;;;7345342;19;110929;-84
2021/12/31 12:27:37;;;;;;;;;;;15.00;99.90;;;;;;7341200;19;111026;-83
2021/12/31 12:30:06;;;;;;;;;;;15.00;99.90;;;;;;7343136;19;110656;-85
2021/12/31 12:35:31;;;;;;;;;;;15.20;99.90;;;;;;7343348;19;111903;-88
2021/12/31 12:37:58;;;;;;;;;;;15.30;99.90;;;;;;7344034;19;109539;-84
2021/12/31 12:40:36;;;;;;;;;;;15.40;99.90;;;;;;7344394;19;110772;-84
2021/12/31 12:43:07;;;;;;;;;;;15.50;99.90;;;;;;7345021;19;113195;-84
2021/12/31 12:45:37;;;;;;;;;;;15.40;99.90;;;;;;7346832;19;109536;-84
2021/12/31 12:48:04;;;;;;;;;;;15.40;99.90;;;;;;7343269;19;115377;-85
2021/12/31 12:50:31;;;;;;;;;;;15.40;99.90;;;;;;7340568;19;109862;-84
2021/12/31 12:52:58;;;;;;;;;;;15.40;99.90;;;;;;7342823;19;111127;-84
2021/12/31 12:55:26;;;;;;;;;;;15.50;99.90;;;;;;7338236;19;110421;-85
2021/12/31 12:58:00;;;;;;;;;;;15.50;99.90;;;;;;7341775;19;109545;-85
2021/12/31 13:00:34;;;;;;;;;;;15.50;99.90;;;;;;7342201;19;109737;-84
2021/12/31 13:03:05;;;;;;;;;;;15.50;99.90;;;;;;7352090;19;112040;-84
2021/12/31 13:05:34;;;;;;;;;;;15.50;99.90;;;;;;7353665;19;109507;-85
2021/12/31 13:08:02;;;;;;;;;;;15.50;99.90;;;;;;7354417;19;109617;-85
2021/12/31 13:10:29;;;;;;;;;;;15.50;99.90;;;;;;7351759;19;110508;-85
2021/12/31 13:12:57;;;;;;;;;;;15.50;99.90;;;;;;7347835;19;111217;-85
2021/12/31 13:15:24;;;;;;;;;;;15.50;99.90;;;;;;7349923;19;112910;-85
2021/12/31 13:17:58;;;;;;;;;;;15.60;99.90;;;;;;7346514;19;109143;-84
2021/12/31 13:20:26;;;;;;;;;;;15.60;99.90;;;;;;7351723;19;111133;-84
2021/12/31 13:22:54;;;;;;;;;;;15.60;99.90;;;;;;7348566;19;112093;-84
2021/12/31 13:25:35;;;;;;;;;;;15.60;99.90;;;;;;7351632;19;109385;-85
2021/12/31 13:28:09;;;;;;;;;;;15.50;99.90;;;;;;7350970;19;110605;-84
2021/12/31 13:30:46;;;;;;;;;;;15.50;99.90;;;;;;7353294;19;111769;-84
2021/12/31 13:33:20;;;;;;;;;;;15.40;99.90;;;;;;7348316;19;111548;-85
2021/12/31 13:35:47;;;;;;;;;;;15.40;99.90;;;;;;7344920;19;110439;-84
2021/12/31 13:38:14;;;;;;;;;;;15.40;99.90;;;;;;7351196;19;109375;-85
2021/12/31 13:40:48;;;;;;;;;;;15.30;99.90;;;;;;7347186;19;112188;-84
2021/12/31 13:43:24;;;;;;;;;;;15.30;99.90;;;;;;7346490;19;112065;-84
2021/12/31 13:45:51;;;;;;;;;;;15.20;99.90;;;;;;7349492;19;109620;-84
2021/12/31 13:48:18;;;;;;;;;;;15.20;99.90;;;;;;7345551;19;111033;-84
2021/12/31 13:50:46;;;;;;;;;;;15.20;99.90;;;;;;7349915;19;110172;-81
2021/12/31 13:53:22;;;;;;;;;;;15.20;99.90;;;;;;7352234;19;113850;-80
2021/12/31 13:55:49;;;;;;;;;;;15.20;99.90;;;;;;7349812;19;111744;-82
2021/12/31 13:58:25;;;;;;;;;;;15.10;99.90;;;;;;7346843;19;110656;-81
2021/12/31 14:00:51;;;;;;;;;;;15.10;99.90;;;;;;7348311;19;110796;-80
2021/12/31 14:03:18;;;;;;;;;;;15.10;99.90;;;;;;7349110;19;111744;-81
2021/12/31 14:05:48;;;;;;;;;;;15.00;99.90;;;;;;7350219;19;109709;-82
2021/12/31 14:08:41;;;;;;;;;;;15.00;99.90;;;;;;7349406;19;110107;-81
2021/12/31 14:11:11;;;;;;;;;;;15.00;99.90;;;;;;7346589;19;112050;-81
2021/12/31 14:13:38;;;;;;;;;;;15.00;99.90;;;;;;7350054;19;109434;-81
2021/12/31 14:16:05;;;;;;;;;;;14.90;99.90;;;;;;7351486;19;111015;-82
2021/12/31 14:18:32;;;;;;;;;;;14.90;99.90;;;;;;7351293;19;109355;-83
2021/12/31 14:20:59;;;;;;;;;;;14.90;99.90;;;;;;7345567;19;110224;-83
2021/12/31 14:23:29;;;;;;;;;;;15.00;99.90;;;;;;7350497;19;112040;-80